»·PEaware :: N7732J KTOA-KVNY

N7732J :: KTOA-KVNY

FLIGHT INFORMATION

Flight Status: Arrived
Operator: Privately registered:
United States
More flights under this callsign
Pilot: Scott G. (88)
Aircraft: BEECH AIRCRAFT BARON
(BE58)
More flights by this aircraft type
Origin: KTOA Zamperini
United States
Destination: KVNY Van Nuys
United States
More flights between these airports :: More routes between these airports
Route: LAX170 LIMBO V64 SMO125 SMO SMO317 CANOG
File this flight plan on PilotEdge
Remarks: SKY HIGH Scenario 1
Altitude:
(Current/Filed)
4,000ft
Speed:
(Current/Filed)
180kts
Departed: 07-Feb-19 05:10 PM
Arrived: 07-Feb-19 05:51 PM
Distance/Time
Traveled:
26nm/0:40
Distance/Time
To Go:
Arrived

Flight Plot

Page will automatically refresh every two minutes.

Flight plan parsing failed; only flown route is shown


Map Options




Map Legend


Flown Route
Filed Route
Departure Airport
Arrival Airport
Navaid (VOR, NDB)
Fix

Horizontal Profiles

Position Reports

Time Latitude Longitude Heading Altitude Ground
Speed
07-Feb-19 16:41 33.802190 -118.342250 30 107ft 0kts
07-Feb-19 16:42 33.802190 -118.342250 30 107ft 0kts
07-Feb-19 16:43 33.802190 -118.342250 30 107ft 0kts
07-Feb-19 16:44 33.802190 -118.342250 30 107ft 0kts
07-Feb-19 16:45 33.802189 -118.342250 30 107ft 0kts
07-Feb-19 16:46 33.802189 -118.342250 30 107ft 0kts
07-Feb-19 16:47 33.802189 -118.342250 30 107ft 0kts
07-Feb-19 16:48 33.802189 -118.342250 30 107ft 0kts
07-Feb-19 16:49 33.802189 -118.342250 30 107ft 0kts
07-Feb-19 16:50 33.802189 -118.342250 30 107ft 0kts
07-Feb-19 16:51 33.802189 -118.342250 30 107ft 0kts
07-Feb-19 16:52 33.802189 -118.342250 30 107ft 0kts
07-Feb-19 16:53 33.802189 -118.342250 30 107ft 0kts
07-Feb-19 16:54 33.802189 -118.342250 30 107ft 0kts
07-Feb-19 16:55 33.802189 -118.342250 30 107ft 0kts
07-Feb-19 16:56 33.802189 -118.342250 30 107ft 0kts
07-Feb-19 16:57 33.802189 -118.342250 30 107ft 0kts
07-Feb-19 16:58 33.802189 -118.342250 30 107ft 0kts
07-Feb-19 16:59 33.802189 -118.342250 30 107ft 0kts
07-Feb-19 17:00 33.802189 -118.342250 30 107ft 0kts
07-Feb-19 17:01 33.802189 -118.342250 30 107ft 0kts
07-Feb-19 17:02 33.800865 -118.339961 102 107ft 14kts
07-Feb-19 17:03 33.798148 -118.334693 126 107ft 13kts
07-Feb-19 17:04 33.798939 -118.333150 342 107ft 0kts
07-Feb-19 17:05 33.798939 -118.333150 342 107ft 0kts
07-Feb-19 17:06 33.798939 -118.333150 342 107ft 0kts
07-Feb-19 17:07 33.798939 -118.333150 342 107ft 0kts
07-Feb-19 17:08 33.799700 -118.333038 311 107ft 10kts
07-Feb-19 17:09 33.809056 -118.348122 303 745ft 102kts
07-Feb-19 17:10 33.827743 -118.379304 304 2177ft 118kts
07-Feb-19 17:11 33.849026 -118.414466 303 3330ft 128kts
07-Feb-19 17:12 33.849856 -118.447643 162 3925ft 153kts
07-Feb-19 17:13 33.805384 -118.441886 189 3993ft 171kts
07-Feb-19 17:14 33.757071 -118.447710 187 3990ft 176kts
07-Feb-19 17:15 33.708261 -118.452201 179 3976ft 177kts
07-Feb-19 17:16 33.681616 -118.409580 65 3948ft 181kts
07-Feb-19 17:17 33.724844 -118.380767 22 3981ft 175kts
07-Feb-19 17:18 33.769550 -118.356401 22 3981ft 177kts
07-Feb-19 17:19 33.814567 -118.331837 22 3981ft 177kts
07-Feb-19 17:20 33.860624 -118.317623 347 3982ft 172kts
07-Feb-19 17:21 33.901962 -118.345577 317 3982ft 175kts
07-Feb-19 17:22 33.938331 -118.383737 318 3979ft 171kts
07-Feb-19 17:23 33.974773 -118.420545 318 4002ft 170kts
07-Feb-19 17:24 34.011094 -118.457376 318 4002ft 171kts
07-Feb-19 17:25 34.052560 -118.484627 333 4003ft 173kts
07-Feb-19 17:26 34.098020 -118.506300 341 4002ft 174kts
07-Feb-19 17:27 34.144205 -118.524281 341 3999ft 173kts
07-Feb-19 17:28 34.189740 -118.542890 341 3996ft 173kts
07-Feb-19 17:29 34.227801 -118.573286 29 3990ft 162kts
07-Feb-19 17:30 34.215525 -118.528090 103 3993ft 150kts
07-Feb-19 17:31 34.210959 -118.478759 68 4019ft 145kts
07-Feb-19 17:32 34.243949 -118.471645 322 4675ft 141kts
07-Feb-19 17:33 34.275327 -118.502677 321 5004ft 155kts
07-Feb-19 17:34 34.309346 -118.536041 321 5002ft 159kts
07-Feb-19 17:35 34.344003 -118.569809 321 5001ft 160kts
07-Feb-19 17:36 34.385521 -118.584664 352 5003ft 159kts
07-Feb-19 17:37 34.429466 -118.591895 352 5006ft 159kts
07-Feb-19 17:39 34.473708 -118.595441 25 5023ft 157kts
07-Feb-19 17:40 34.482840 -118.548005 125 5016ft 161kts
07-Feb-19 17:41 34.447980 -118.513733 142 5013ft 162kts
07-Feb-19 17:42 34.408439 -118.493213 180 4977ft 163kts
07-Feb-19 17:43 34.364132 -118.507058 182 4707ft 173kts
07-Feb-19 17:44 34.321099 -118.500889 175 3563ft 142kts
07-Feb-19 17:45 34.283126 -118.497292 175 2583ft 134kts
07-Feb-19 17:46 34.246568 -118.493833 175 1847ft 121kts
07-Feb-19 17:47 34.214376 -118.503996 181 1816ft 121kts
07-Feb-19 17:48 34.180781 -118.504359 180 1880ft 120kts
07-Feb-19 17:49 34.168610 -118.487778 15 1407ft 116kts
07-Feb-19 17:50 34.198306 -118.489309 357 815ft 99kts
07-Feb-19 17:51 34.209175 -118.490326 355 806ft 18kts
07-Feb-19 17:52 34.210110 -118.491364 260 806ft 0kts
07-Feb-19 17:53 34.210110 -118.491364 260 806ft 0kts
07-Feb-19 17:54 34.209334 -118.491688 234 806ft 6kts
07-Feb-19 17:55 34.209521 -118.491920 357 806ft 0kts

Navigation Log

Ident Type
Flight plan parsing failed, navigation log unavailable